Time;durP1;ratioP1;P1;durP2;ratioP2;P2;SDS_P1;SDS_P2;PMS_P1;PMS_P2;Temp;Humidity;BMP_temperature;BMP_pressure;BME280_temperature;BME280_humidity;BME280_pressure;Samples;Min_cycle;Max_cycle;Signal;HPM_P1;HPM_P2
2023/04/24 00:00:17;;;;;;;5.00;4.50;;;12.80;99.90;;;;;;5043006;28;20239;-78
2023/04/24 00:02:46;;;;;;;4.50;4.10;;;12.80;99.90;;;;;;5047788;28;20293;-77
2023/04/24 00:05:17;;;;;;;4.63;4.17;;;12.80;99.90;;;;;;5044828;28;20199;-79
2023/04/24 00:07:43;;;;;;;4.80;4.40;;;12.70;99.90;;;;;;5036472;28;20304;-77
2023/04/24 00:10:09;;;;;;;5.57;4.27;;;12.70;99.90;;;;;;5038569;28;20210;-78
2023/04/24 00:12:35;;;;;;;5.37;4.87;;;12.70;99.90;;;;;;5050369;28;20202;-77
2023/04/24 00:15:01;;;;;;;4.30;4.00;;;12.70;99.90;;;;;;5040362;28;20195;-78
2023/04/24 00:17:26;;;;;;;4.93;4.53;;;12.70;99.90;;;;;;5049486;28;20225;-78
2023/04/24 00:19:58;;;;;;;5.20;4.80;;;12.70;99.90;;;;;;5043215;28;20371;-78
2023/04/24 00:22:24;;;;;;;5.47;4.97;;;12.60;99.90;;;;;;5048036;28;20390;-78
2023/04/24 00:24:49;;;;;;;7.33;4.70;;;12.60;99.90;;;;;;5043234;28;20201;-80
2023/04/24 00:27:15;;;;;;;5.47;4.90;;;12.60;99.90;;;;;;5034025;28;20198;-79
2023/04/24 00:29:40;;;;;;;5.23;4.73;;;12.60;99.90;;;;;;5048376;28;20198;-78
2023/04/24 00:32:06;;;;;;;4.47;4.17;;;12.60;99.90;;;;;;5048433;28;20198;-79
2023/04/24 00:34:32;;;;;;;5.30;4.80;;;12.60;99.90;;;;;;5047194;28;20193;-79
2023/04/24 00:36:57;;;;;;;5.40;4.50;;;12.60;99.90;;;;;;5047912;28;20250;-79
2023/04/24 00:39:23;;;;;;;5.20;4.70;;;12.60;99.90;;;;;;5048409;28;20205;-78
2023/04/24 00:41:50;;;;;;;4.90;4.47;;;12.50;99.90;;;;;;5035039;28;20203;-80
2023/04/24 00:44:16;;;;;;;4.70;4.13;;;12.50;99.90;;;;;;5033342;28;20192;-78
2023/04/24 00:46:42;;;;;;;5.80;5.40;;;12.50;99.90;;;;;;5046605;28;20210;-78
2023/04/24 00:49:08;;;;;;;5.30;4.80;;;12.40;99.90;;;;;;5046879;28;20236;-78
2023/04/24 00:51:34;;;;;;;7.13;5.17;;;12.50;99.90;;;;;;5047406;28;20211;-78
2023/04/24 00:54:00;;;;;;;5.00;4.60;;;12.50;99.90;;;;;;5047890;28;20696;-79
2023/04/24 00:56:26;;;;;;;5.30;4.80;;;12.50;99.90;;;;;;5040140;28;20191;-79
2023/04/24 00:58:52;;;;;;;5.67;5.17;;;12.60;99.90;;;;;;5027688;28;20225;-77
2023/04/24 01:01:21;;;;;;;4.90;4.07;;;12.60;99.90;;;;;;5042600;28;20227;-78
2023/04/24 01:03:51;;;;;;;5.13;4.73;;;12.60;99.90;;;;;;5033236;28;20883;-78
2023/04/24 01:06:17;;;;;;;5.20;4.70;;;12.60;99.90;;;;;;5037656;28;20270;-77
2023/04/24 01:08:44;;;;;;;5.57;5.07;;;12.60;99.90;;;;;;5034272;28;20234;-79
2023/04/24 01:11:09;;;;;;;4.70;4.37;;;12.70;99.90;;;;;;5042728;28;20285;-80
2023/04/24 01:13:35;;;;;;;5.70;4.80;;;12.70;99.90;;;;;;5037680;28;20718;-79
2023/04/24 01:16:01;;;;;;;5.43;4.93;;;12.60;99.90;;;;;;5038040;28;20199;-79
2023/04/24 01:18:27;;;;;;;5.47;5.03;;;12.60;99.90;;;;;;5043981;28;20214;-79
2023/04/24 01:20:56;;;;;;;5.40;4.90;;;12.60;99.90;;;;;;5046465;28;20215;-80
2023/04/24 01:23:22;;;;;;;5.70;5.30;;;12.60;99.90;;;;;;5044258;28;20199;-78
2023/04/24 01:25:49;;;;;;;5.70;5.20;;;12.70;99.90;;;;;;5046648;28;20201;-80
2023/04/24 01:28:15;;;;;;;4.97;4.57;;;12.70;99.90;;;;;;5039286;28;20411;-80
2023/04/24 01:30:41;;;;;;;5.60;5.20;;;12.70;99.90;;;;;;5043439;28;20206;-79
2023/04/24 01:33:07;;;;;;;5.50;5.00;;;12.70;99.90;;;;;;5047797;28;20215;-79
2023/04/24 01:35:33;;;;;;;5.80;4.67;;;12.80;99.90;;;;;;5043192;28;20586;-76
2023/04/24 01:37:59;;;;;;;5.07;4.67;;;12.80;99.90;;;;;;5042148;28;20257;-78
2023/04/24 01:40:24;;;;;;;5.80;4.70;;;12.80;99.90;;;;;;5045868;28;20195;-77
2023/04/24 01:42:50;;;;;;;5.80;4.97;;;12.80;99.90;;;;;;5045200;28;20198;-75
2023/04/24 01:45:16;;;;;;;5.77;5.17;;;12.80;99.90;;;;;;5044410;28;20191;-76
2023/04/24 01:47:41;;;;;;;4.83;4.53;;;12.80;99.90;;;;;;5047172;28;20214;-77
2023/04/24 01:50:08;;;;;;;5.33;4.90;;;12.80;99.90;;;;;;5048557;28;20612;-77
2023/04/24 01:52:35;;;;;;;5.57;5.07;;;12.80;99.90;;;;;;5047413;28;20229;-76
2023/04/24 01:55:00;;;;;;;6.17;5.50;;;12.70;99.90;;;;;;5044551;28;20205;-76
2023/04/24 01:57:26;;;;;;;5.83;5.10;;;12.70;99.90;;;;;;5041235;28;20206;-77
2023/04/24 01:59:51;;;;;;;5.37;4.87;;;12.70;99.90;;;;;;5047417;28;20288;-76
2023/04/24 02:02:17;;;;;;;6.00;5.00;;;12.60;99.90;;;;;;5042338;28;20209;-76
2023/04/24 02:04:43;;;;;;;6.20;5.60;;;12.50;99.90;;;;;;5047387;28;20237;-77
2023/04/24 02:07:08;;;;;;;5.43;5.00;;;12.50;99.90;;;;;;5046198;28;20297;-77
2023/04/24 02:09:34;;;;;;;5.63;5.00;;;12.60;99.90;;;;;;5056077;28;20202;-76
2023/04/24 02:12:00;;;;;;;6.17;5.57;;;12.50;99.90;;;;;;5054959;28;20607;-76
2023/04/24 02:14:26;;;;;;;5.63;5.13;;;12.50;99.90;;;;;;5056800;28;20612;-77
2023/04/24 02:16:51;;;;;;;6.20;5.23;;;12.50;99.90;;;;;;5056416;28;20232;-76
2023/04/24 02:19:16;;;;;;;5.80;5.40;;;12.50;99.90;;;;;;5056577;28;20205;-76
2023/04/24 02:21:42;;;;;;;5.90;5.40;;;12.40;99.90;;;;;;5054603;28;20198;-75
2023/04/24 02:24:08;;;;;;;5.97;5.47;;;12.40;99.90;;;;;;5056831;28;20244;-77
2023/04/24 02:26:33;;;;;;;6.33;5.83;;;12.40;99.90;;;;;;5055107;28;20453;-75
2023/04/24 02:28:58;;;;;;;6.43;5.83;;;12.40;99.90;;;;;;5052013;28;20194;-75
2023/04/24 02:31:33;;;;;;;5.87;5.37;;;12.40;99.90;;;;;;5055096;28;20666;-75
2023/04/24 02:33:59;;;;;;;6.60;5.63;;;12.40;99.90;;;;;;5043139;28;20205;-75
2023/04/24 02:36:24;;;;;;;5.93;5.23;;;12.40;99.90;;;;;;5057226;28;20224;-75
2023/04/24 02:38:50;;;;;;;6.77;5.97;;;12.40;99.90;;;;;;5055837;28;20218;-76
2023/04/24 02:41:15;;;;;;;7.07;5.73;;;12.40;99.90;;;;;;5056447;28;20281;-77
2023/04/24 02:43:41;;;;;;;4.97;4.57;;;12.40;99.90;;;;;;5051811;28;20198;-76
2023/04/24 02:46:06;;;;;;;6.97;6.37;;;12.40;99.90;;;;;;5055057;28;20602;-77
2023/04/24 02:48:32;;;;;;;6.77;6.17;;;12.40;99.90;;;;;;5056219;28;20202;-76
2023/04/24 02:50:58;;;;;;;6.80;6.17;;;12.40;99.90;;;;;;5056328;28;20202;-76
2023/04/24 02:53:23;;;;;;;6.20;5.67;;;12.40;99.90;;;;;;5055927;28;20202;-75
2023/04/24 02:55:49;;;;;;;6.20;5.60;;;12.40;99.90;;;;;;5056421;28;20242;-75
2023/04/24 02:58:15;;;;;;;6.37;5.83;;;12.40;99.90;;;;;;5056320;28;20201;-75
2023/04/24 03:00:41;;;;;;;5.73;5.33;;;12.40;99.90;;;;;;5054300;28;20277;-75
2023/04/24 03:03:06;;;;;;;6.23;5.73;;;12.40;99.90;;;;;;5051211;28;20284;-75
2023/04/24 03:05:32;;;;;;;6.83;6.13;;;12.40;99.90;;;;;;5058388;28;20572;-75
2023/04/24 03:07:58;;;;;;;6.13;5.63;;;12.40;99.90;;;;;;5060337;28;20693;-76
2023/04/24 03:10:24;;;;;;;6.23;5.67;;;12.40;99.90;;;;;;5060000;28;20246;-76
2023/04/24 03:12:49;;;;;;;6.27;5.67;;;12.50;99.90;;;;;;5058105;28;20647;-73
2023/04/24 03:15:15;;;;;;;6.47;5.97;;;12.50;99.90;;;;;;5059977;28;20280;-76
2023/04/24 03:17:40;;;;;;;6.53;5.87;;;12.50;99.90;;;;;;5059889;28;20214;-73
2023/04/24 03:20:08;;;;;;;6.70;6.10;;;12.50;99.90;;;;;;5059755;28;20811;-76
2023/04/24 03:22:34;;;;;;;6.37;5.87;;;12.60;99.90;;;;;;5059262;28;20198;-76
2023/04/24 03:24:59;;;;;;;6.53;5.90;;;12.60;99.90;;;;;;5052252;28;20208;-74
2023/04/24 03:27:25;;;;;;;6.70;5.33;;;12.60;99.90;;;;;;5055425;28;20285;-76
2023/04/24 03:29:56;;;;;;;6.30;5.73;;;12.60;99.90;;;;;;5059648;28;20700;-76
2023/04/24 03:32:24;;;;;;;6.07;5.57;;;12.60;99.90;;;;;;5059601;28;20198;-76
2023/04/24 03:34:50;;;;;;;5.37;4.87;;;12.60;99.90;;;;;;5059250;28;20206;-76
2023/04/24 03:37:16;;;;;;;5.53;5.03;;;12.60;99.90;;;;;;5057450;28;20220;-76
2023/04/24 03:39:42;;;;;;;7.00;5.80;;;12.60;99.90;;;;;;5058126;28;20198;-76
2023/04/24 03:42:08;;;;;;;5.80;5.30;;;12.60;99.90;;;;;;5059560;28;20716;-76
2023/04/24 03:44:34;;;;;;;5.57;4.97;;;12.60;99.90;;;;;;5059413;28;20213;-76
2023/04/24 03:47:00;;;;;;;6.20;5.60;;;12.50;99.90;;;;;;5054815;28;20225;-75
2023/04/24 03:49:26;;;;;;;6.77;6.17;;;12.60;99.90;;;;;;5057170;28;20198;-75
2023/04/24 03:51:52;;;;;;;6.50;5.87;;;12.60;99.90;;;;;;5058127;28;20309;-75
2023/04/24 03:54:18;;;;;;;6.57;6.07;;;12.60;99.90;;;;;;5054640;28;20478;-75
2023/04/24 03:56:43;;;;;;;5.47;5.07;;;12.50;99.90;;;;;;5059375;28;20198;-75
2023/04/24 03:59:09;;;;;;;5.60;5.10;;;12.50;99.90;;;;;;5059208;28;20665;-77
2023/04/24 04:01:36;;;;;;;6.00;5.50;;;12.50;99.90;;;;;;5058811;28;20274;-74
2023/04/24 04:04:03;;;;;;;6.33;5.80;;;12.60;99.90;;;;;;5058998;28;20198;-75
2023/04/24 04:06:30;;;;;;;5.93;5.37;;;12.60;99.90;;;;;;5059124;28;20925;-75
2023/04/24 04:08:56;;;;;;;6.27;5.77;;;12.60;99.90;;;;;;5059332;28;20194;-75
2023/04/24 04:11:21;;;;;;;6.67;6.07;;;12.60;99.90;;;;;;5054440;28;20569;-75
2023/04/24 04:13:47;;;;;;;5.93;5.43;;;12.50;99.90;;;;;;5056458;28;20238;-74
2023/04/24 04:16:13;;;;;;;6.33;5.80;;;12.50;99.90;;;;;;5057789;28;20372;-76
2023/04/24 04:18:39;;;;;;;7.13;6.07;;;12.50;99.90;;;;;;5054000;28;20824;-76
2023/04/24 04:21:05;;;;;;;5.30;4.80;;;12.50;99.90;;;;;;5058670;28;20225;-75
2023/04/24 04:23:31;;;;;;;6.60;6.00;;;12.50;99.90;;;;;;5058795;28;20194;-75
2023/04/24 04:25:57;;;;;;;6.37;5.80;;;12.50;99.90;;;;;;5052820;28;20194;-75
2023/04/24 04:28:24;;;;;;;10.57;5.63;;;12.50;99.90;;;;;;5058508;28;20557;-75
2023/04/24 04:30:53;;;;;;;6.07;5.50;;;12.40;99.90;;;;;;5058748;28;20704;-76
2023/04/24 04:33:19;;;;;;;5.77;5.33;;;12.40;99.90;;;;;;5058351;28;20317;-75
2023/04/24 04:35:48;;;;;;;6.37;5.77;;;12.40;99.90;;;;;;5058257;28;20233;-75
2023/04/24 04:38:14;;;;;;;7.10;6.07;;;12.40;99.90;;;;;;5056323;28;20214;-76
2023/04/24 04:40:40;;;;;;;5.97;5.47;;;12.40;99.90;;;;;;5058345;28;20295;-73
2023/04/24 04:43:06;;;;;;;5.80;5.33;;;12.40;99.90;;;;;;5047285;28;20225;-72
2023/04/24 04:45:32;;;;;;;6.00;5.40;;;12.40;99.90;;;;;;5040732;28;20206;-73
2023/04/24 04:48:00;;;;;;;5.80;5.27;;;12.50;99.90;;;;;;5044117;28;20198;-79
2023/04/24 04:50:26;;;;;;;5.67;4.93;;;12.50;99.90;;;;;;5051694;28;20227;-76
2023/04/24 04:52:52;;;;;;;6.50;5.90;;;12.50;99.90;;;;;;5053005;28;20206;-66
2023/04/24 04:55:18;;;;;;;5.80;5.30;;;12.60;99.90;;;;;;5045334;28;20673;-67
2023/04/24 04:57:43;;;;;;;8.03;5.90;;;12.60;99.90;;;;;;5042972;28;20267;-66
2023/04/24 05:00:10;;;;;;;5.50;5.10;;;12.60;99.90;;;;;;5038928;28;20199;-68
2023/04/24 05:02:36;;;;;;;7.13;5.80;;;12.60;99.90;;;;;;5041519;28;20195;-67
2023/04/24 05:05:01;;;;;;;5.20;4.70;;;12.60;99.90;;;;;;5042809;28;20198;-68
2023/04/24 05:07:27;;;;;;;5.17;4.77;;;12.60;99.90;;;;;;5042537;28;20689;-66
2023/04/24 05:09:52;;;;;;;8.53;5.03;;;12.60;99.90;;;;;;5042693;28;20195;-67
2023/04/24 05:12:18;;;;;;;5.80;5.30;;;12.60;99.90;;;;;;5041855;28;21002;-67
2023/04/24 05:14:44;;;;;;;5.63;5.13;;;12.70;99.90;;;;;;5045811;28;20297;-68
2023/04/24 05:17:09;;;;;;;6.57;5.27;;;12.70;99.90;;;;;;5038488;28;20215;-67
2023/04/24 05:19:37;;;;;;;5.20;4.73;;;12.70;99.90;;;;;;5042021;28;20202;-68
2023/04/24 05:22:04;;;;;;;5.43;4.90;;;12.70;99.90;;;;;;5041063;28;20329;-67
2023/04/24 05:24:30;;;;;;;6.03;5.27;;;12.70;99.90;;;;;;5038444;28;20286;-69
2023/04/24 05:26:56;;;;;;;5.40;4.90;;;12.70;99.90;;;;;;5042010;28;20348;-69
2023/04/24 05:29:22;;;;;;;5.50;4.93;;;12.70;99.90;;;;;;5041480;28;20210;-68
2023/04/24 05:31:47;;;;;;;5.50;5.00;;;12.70;99.90;;;;;;5050016;28;20210;-67
2023/04/24 05:34:14;;;;;;;5.03;4.50;;;12.80;99.90;;;;;;5052298;28;20297;-68
2023/04/24 05:36:39;;;;;;;5.77;5.17;;;12.80;99.90;;;;;;5052749;28;20238;-66
2023/04/24 05:39:04;;;;;;;5.03;4.10;;;12.80;99.90;;;;;;5052463;28;20460;-68
2023/04/24 05:41:30;;;;;;;4.53;4.13;;;12.80;99.90;;;;;;5049371;28;20194;-80
2023/04/24 05:43:56;;;;;;;5.37;4.87;;;12.80;99.90;;;;;;5057384;28;20198;-81
2023/04/24 05:46:21;;;;;;;4.40;4.00;;;12.90;99.90;;;;;;5052594;28;20202;-68
2023/04/24 05:48:47;;;;;;;3.90;3.50;;;12.90;99.90;;;;;;5040040;28;20209;-67
2023/04/24 05:51:12;;;;;;;4.33;3.93;;;12.90;99.90;;;;;;5041012;28;20763;-67
2023/04/24 05:53:37;;;;;;;4.63;3.73;;;13.00;99.90;;;;;;5041137;28;20214;-69
2023/04/24 05:56:03;;;;;;;4.93;4.00;;;13.00;99.90;;;;;;5039978;28;20686;-69
2023/04/24 05:58:29;;;;;;;3.33;3.10;;;13.00;99.90;;;;;;5042384;28;20213;-68
2023/04/24 06:00:54;;;;;;;6.47;3.03;;;13.10;99.90;;;;;;5043270;28;20202;-68
2023/04/24 06:03:20;;;;;;;4.83;2.63;;;13.20;99.90;;;;;;5039960;28;20198;-66
2023/04/24 06:05:45;;;;;;;2.60;2.43;;;13.30;99.90;;;;;;5052967;28;20221;-66
2023/04/24 06:08:11;;;;;;;2.90;2.53;;;13.40;99.90;;;;;;5056909;28;20202;-69
2023/04/24 06:10:37;;;;;;;2.60;2.40;;;13.50;99.90;;;;;;5056310;28;20553;-68
2023/04/24 06:13:02;;;;;;;3.60;2.53;;;13.60;99.90;;;;;;5056509;28;20687;-70
2023/04/24 06:15:30;;;;;;;4.17;1.97;;;13.70;99.90;;;;;;5047571;28;20290;-70
2023/04/24 06:17:56;;;;;;;2.57;2.37;;;13.70;99.90;;;;;;5039561;28;20219;-68
2023/04/24 06:20:22;;;;;;;2.33;2.13;;;13.70;99.90;;;;;;5039701;28;20195;-69
2023/04/24 06:22:47;;;;;;;2.30;2.10;;;13.70;99.90;;;;;;5041498;28;20210;-69
2023/04/24 06:25:12;;;;;;;2.40;1.70;;;14.00;99.90;;;;;;5043193;28;20277;-70
2023/04/24 06:27:38;;;;;;;3.03;1.70;;;14.10;99.90;;;;;;5039877;28;20730;-69
2023/04/24 06:30:04;;;;;;;3.43;2.00;;;14.20;99.90;;;;;;5038829;28;20263;-69
2023/04/24 06:32:30;;;;;;;3.70;1.67;;;14.30;99.90;;;;;;5041851;28;20218;-69
2023/04/24 06:34:56;;;;;;;1.53;1.43;;;14.30;99.90;;;;;;5039993;28;20759;-68
2023/04/24 06:37:21;;;;;;;3.73;1.50;;;14.40;99.90;;;;;;5039395;28;20677;-69
2023/04/24 06:39:47;;;;;;;1.60;1.50;;;14.40;99.90;;;;;;5036765;28;20205;-68
2023/04/24 06:42:15;;;;;;;1.80;1.70;;;14.30;99.90;;;;;;5035567;28;20190;-67
2023/04/24 06:44:40;;;;;;;2.30;1.83;;;14.40;99.90;;;;;;5035154;28;20214;-69
2023/04/24 06:47:09;;;;;;;2.13;2.03;;;14.50;99.90;;;;;;5036133;28;20206;-68
2023/04/24 06:49:39;;;;;;;2.63;1.53;;;14.60;99.90;;;;;;5044245;28;20206;-68
2023/04/24 06:52:05;;;;;;;3.70;1.63;;;14.80;99.90;;;;;;5039494;28;20233;-68
2023/04/24 06:54:31;;;;;;;1.10;0.97;;;15.00;99.90;;;;;;5049966;28;20720;-69
2023/04/24 06:57:00;;;;;;;1.10;1.00;;;15.10;99.90;;;;;;5046728;28;20325;-68
2023/04/24 06:59:26;;;;;;;1.40;1.10;;;15.20;99.90;;;;;;5042043;28;20199;-67
2023/04/24 07:01:52;;;;;;;1.07;1.07;;;15.30;99.90;;;;;;5036442;28;20282;-67
2023/04/24 07:04:18;;;;;;;1.20;1.20;;;15.40;99.90;;;;;;5035241;28;20234;-68
2023/04/24 07:06:46;;;;;;;1.40;1.33;;;15.10;99.90;;;;;;5041881;28;20496;-68
2023/04/24 07:09:13;;;;;;;1.00;0.80;;;15.00;99.90;;;;;;5044114;28;20272;-69
2023/04/24 07:11:40;;;;;;;1.93;1.00;;;15.00;99.90;;;;;;5036396;28;20248;-68
2023/04/24 07:14:06;;;;;;;0.70;0.70;;;15.00;99.90;;;;;;5036362;28;20211;-68
2023/04/24 07:16:31;;;;;;;1.27;1.07;;;14.90;99.90;;;;;;5040483;28;20277;-77
2023/04/24 07:18:57;;;;;;;1.00;1.00;;;15.00;99.90;;;;;;5039315;28;20302;-88
2023/04/24 07:21:22;;;;;;;1.30;1.00;;;15.10;99.90;;;;;;5044470;28;20198;-76
2023/04/24 07:23:48;;;;;;;0.63;0.63;;;15.20;99.90;;;;;;5038730;28;20246;-81
2023/04/24 07:26:14;;;;;;;1.07;0.60;;;15.10;99.90;;;;;;5047926;28;20201;-80
2023/04/24 07:28:40;;;;;;;0.67;0.50;;;15.00;99.90;;;;;;5036923;28;20202;-80
2023/04/24 07:31:06;;;;;;;0.83;0.83;;;15.10;99.90;;;;;;5035585;28;20205;-80
2023/04/24 07:33:31;;;;;;;0.70;0.70;;;15.20;99.90;;;;;;5035387;28;20237;-77
2023/04/24 07:35:57;;;;;;;0.70;0.70;;;15.20;99.90;;;;;;5034925;28;20381;-81
2023/04/24 07:38:22;;;;;;;0.80;0.80;;;15.30;99.90;;;;;;5036403;28;20669;-76
2023/04/24 07:40:48;;;;;;;0.90;0.80;;;15.30;99.90;;;;;;5044013;28;20269;-77
2023/04/24 07:43:14;;;;;;;0.60;0.60;;;15.50;99.90;;;;;;5045910;28;20990;-78
2023/04/24 07:45:40;;;;;;;0.70;0.70;;;15.60;99.90;;;;;;5045811;28;20199;-76
2023/04/24 07:48:06;;;;;;;0.70;0.70;;;15.70;99.90;;;;;;5045455;28;20206;-77
2023/04/24 07:50:31;;;;;;;0.73;0.73;;;15.90;99.90;;;;;;5046114;28;20608;-79
2023/04/24 07:52:57;;;;;;;0.53;0.53;;;16.20;99.90;;;;;;5047750;28;20205;-79
2023/04/24 07:55:23;;;;;;;0.60;0.60;;;16.40;99.90;;;;;;5051557;28;20198;-87
2023/04/24 07:57:48;;;;;;;2.10;1.90;;;16.60;99.90;;;;;;5057885;28;20936;-87
2023/04/24 08:00:14;;;;;;;0.60;0.60;;;16.70;99.90;;;;;;5061221;28;20569;-86
2023/04/24 08:02:40;;;;;;;0.50;0.50;;;16.60;99.90;;;;;;5062034;28;20547;-85
2023/04/24 08:05:06;;;;;;;1.60;0.60;;;16.50;99.90;;;;;;5052961;28;20203;-86
2023/04/24 08:07:31;;;;;;;1.13;0.80;;;16.70;99.90;;;;;;5045292;28;20667;-86
2023/04/24 08:09:57;;;;;;;2.03;0.97;;;16.70;99.90;;;;;;5059158;28;20211;-85
2023/04/24 08:12:22;;;;;;;0.70;0.70;;;16.90;99.00;;;;;;5053560;28;20213;-86
2023/04/24 08:14:48;;;;;;;0.70;0.70;;;16.80;99.00;;;;;;5050723;28;20204;-85
2023/04/24 08:17:13;;;;;;;0.50;0.50;;;16.70;99.30;;;;;;5048885;28;20289;-84
2023/04/24 08:19:44;;;;;;;1.70;0.97;;;16.60;99.40;;;;;;5048379;28;20217;-85
2023/04/24 08:22:09;;;;;;;1.27;0.70;;;16.50;99.90;;;;;;5041772;28;20648;-84
2023/04/24 08:24:36;;;;;;;0.77;0.60;;;16.60;99.90;;;;;;5040164;28;20724;-85
2023/04/24 08:27:02;;;;;;;0.60;0.60;;;16.70;99.90;;;;;;5045402;28;20199;-83
2023/04/24 08:29:27;;;;;;;0.90;0.50;;;16.90;99.90;;;;;;5043808;28;20238;-86
2023/04/24 08:31:54;;;;;;;0.67;0.50;;;16.90;99.60;;;;;;5049441;28;20210;-85
2023/04/24 08:34:20;;;;;;;0.60;0.60;;;16.90;99.30;;;;;;5042953;28;20810;-83
2023/04/24 08:36:45;;;;;;;1.10;0.97;;;17.00;98.60;;;;;;5045035;28;20230;-85
2023/04/24 08:39:11;;;;;;;1.60;1.03;;;16.90;98.40;;;;;;5043807;28;20208;-83
2023/04/24 08:41:37;;;;;;;0.57;0.57;;;17.00;98.30;;;;;;5040483;28;20657;-82
2023/04/24 08:44:03;;;;;;;1.00;0.83;;;17.20;97.90;;;;;;5039818;28;20275;-79
2023/04/24 08:46:30;;;;;;;0.60;0.60;;;17.20;98.00;;;;;;5043108;28;20195;-82
2023/04/24 08:48:56;;;;;;;1.67;0.70;;;17.40;97.80;;;;;;5046071;28;20204;-82
2023/04/24 08:51:25;;;;;;;0.60;0.60;;;17.50;97.60;;;;;;5057956;28;20201;-83
2023/04/24 08:53:53;;;;;;;0.93;0.93;;;17.50;97.70;;;;;;5058307;28;20223;-83
2023/04/24 08:56:19;;;;;;;1.07;0.60;;;17.70;97.40;;;;;;5057987;28;20199;-82
2023/04/24 08:58:46;;;;;;;0.83;0.83;;;17.70;97.10;;;;;;5052144;28;20212;-77
2023/04/24 09:01:12;;;;;;;1.87;0.70;;;17.60;97.20;;;;;;5057896;28;20197;-76
2023/04/24 09:03:38;;;;;;;0.60;0.60;;;17.50;97.10;;;;;;5055415;28;20212;-78
2023/04/24 09:06:05;;;;;;;0.60;0.60;;;17.60;97.20;;;;;;5057794;28;20201;-76
2023/04/24 09:08:32;;;;;;;0.47;0.47;;;17.70;97.10;;;;;;5056801;28;20241;-77
2023/04/24 09:10:58;;;;;;;0.50;0.50;;;17.70;97.20;;;;;;5057955;28;20267;-77
2023/04/24 09:13:24;;;;;;;0.60;0.60;;;17.80;96.90;;;;;;5039344;28;20202;-77
2023/04/24 09:15:50;;;;;;;1.00;0.90;;;17.80;96.30;;;;;;5054975;28;20221;-76
2023/04/24 09:18:15;;;;;;;0.97;0.70;;;17.80;96.20;;;;;;5048468;28;20595;-85
2023/04/24 09:21:01;;;;;;;0.50;0.50;;;17.90;96.30;;;;;;5050200;28;20296;-84
2023/04/24 09:23:31;;;;;;;1.27;0.80;;;17.90;96.00;;;;;;5058112;28;20227;-83
2023/04/24 09:25:57;;;;;;;1.93;0.77;;;17.90;96.10;;;;;;5055495;28;20278;-84
2023/04/24 09:28:35;;;;;;;1.13;1.00;;;17.80;96.70;;;;;;5048422;28;20215;-81
2023/04/24 09:31:15;;;;;;;0.60;0.60;;;17.80;96.90;;;;;;5043462;28;20203;-84
2023/04/24 09:33:56;;;;;;;0.60;0.60;;;17.90;97.20;;;;;;5047471;28;20595;-84
2023/04/24 09:36:33;;;;;;;1.33;0.73;;;18.10;96.90;;;;;;5048530;28;20603;-83
2023/04/24 09:39:00;;;;;;;0.83;0.83;;;18.00;97.10;;;;;;5056230;28;20217;-82
2023/04/24 09:41:27;;;;;;;2.50;1.67;;;17.80;97.90;;;;;;5051497;28;20195;-80
2023/04/24 09:43:56;;;;;;;2.10;1.17;;;17.50;98.20;;;;;;5056779;28;20202;-83
2023/04/24 09:46:30;;;;;;;3.63;1.07;;;17.40;98.80;;;;;;5062400;28;20283;-84
2023/04/24 09:48:56;;;;;;;0.83;0.80;;;17.50;98.90;;;;;;5055452;28;20225;-82
2023/04/24 09:51:40;;;;;;;2.30;0.90;;;17.60;98.50;;;;;;5056388;28;20596;-84
2023/04/24 09:54:24;;;;;;;1.87;1.60;;;17.50;98.20;;;;;;5050471;28;20204;-82
2023/04/24 09:56:50;;;;;;;1.97;0.70;;;17.40;98.50;;;;;;5049088;28;20226;-84
2023/04/24 09:59:19;;;;;;;1.27;0.80;;;17.40;98.60;;;;;;5051963;28;20192;-85
2023/04/24 10:01:45;;;;;;;2.23;0.90;;;17.30;98.80;;;;;;5053505;28;20293;-85
2023/04/24 10:04:19;;;;;;;1.53;0.80;;;17.20;98.30;;;;;;5052634;28;20197;-84
2023/04/24 10:06:45;;;;;;;2.13;0.80;;;17.00;98.50;;;;;;5048604;28;20556;-85
2023/04/24 10:09:13;;;;;;;0.60;0.60;;;17.00;98.30;;;;;;5050375;28;20296;-83
2023/04/24 10:11:47;;;;;;;0.87;0.73;;;17.10;98.30;;;;;;5045503;28;20199;-84
2023/04/24 10:14:15;;;;;;;0.93;0.60;;;17.50;98.10;;;;;;5044155;28;20203;-84
2023/04/24 10:16:41;;;;;;;1.37;0.90;;;17.80;97.50;;;;;;5048599;28;20214;-86
2023/04/24 10:19:08;;;;;;;1.60;0.80;;;17.70;97.00;;;;;;5045973;28;20280;-81
2023/04/24 10:21:35;;;;;;;1.00;0.93;;;17.50;97.40;;;;;;5044782;28;20199;-84
2023/04/24 10:24:03;;;;;;;1.90;0.63;;;17.20;98.00;;;;;;5047210;28;20290;-84
2023/04/24 10:26:29;;;;;;;4.20;1.20;;;17.00;98.40;;;;;;5044985;28;20291;-84
2023/04/24 10:28:57;;;;;;;0.63;0.63;;;16.80;98.80;;;;;;5049134;28;20290;-83
2023/04/24 10:31:24;;;;;;;0.60;0.60;;;16.70;99.20;;;;;;5049436;28;20209;-86
2023/04/24 10:33:51;;;;;;;1.17;0.83;;;16.60;99.40;;;;;;5046238;28;20223;-83
2023/04/24 10:36:17;;;;;;;1.00;0.90;;;16.50;99.80;;;;;;5047553;28;20230;-85
2023/04/24 10:38:45;;;;;;;1.03;0.93;;;16.50;99.90;;;;;;5048337;28;20259;-84
2023/04/24 10:41:23;;;;;;;0.80;0.80;;;16.40;99.60;;;;;;5054162;28;20201;-85
2023/04/24 10:44:03;;;;;;;0.70;0.70;;;16.30;99.70;;;;;;5057535;28;20447;-84
2023/04/24 10:46:30;;;;;;;0.90;0.90;;;16.20;99.60;;;;;;5056746;28;20669;-85
2023/04/24 10:48:56;;;;;;;2.07;1.17;;;16.10;99.80;;;;;;5059108;28;20244;-84
2023/04/24 10:51:22;;;;;;;1.40;0.73;;;16.10;99.80;;;;;;5056191;28;20210;-85
2023/04/24 10:53:50;;;;;;;1.27;0.87;;;16.20;99.90;;;;;;5056569;28;20205;-84
2023/04/24 10:56:16;;;;;;;2.13;1.13;;;16.30;99.90;;;;;;5045948;28;20205;-84
2023/04/24 10:58:49;;;;;;;0.90;0.90;;;16.60;99.90;;;;;;5051653;28;20202;-85
2023/04/24 11:01:26;;;;;;;3.07;1.67;;;17.00;99.90;;;;;;5047726;28;20227;-84
2023/04/24 11:03:56;;;;;;;2.90;1.00;;;17.70;99.40;;;;;;5049408;28;20303;-85
2023/04/24 11:06:31;;;;;;;1.17;1.00;;;18.00;98.50;;;;;;5053589;28;20191;-85
2023/04/24 11:09:08;;;;;;;1.37;0.63;;;18.10;98.10;;;;;;5046495;28;20214;-84
2023/04/24 11:11:36;;;;;;;1.70;1.00;;;18.10;97.90;;;;;;5035106;28;20324;-84
2023/04/24 11:14:04;;;;;;;2.23;1.20;;;18.10;97.70;;;;;;5033600;28;20200;-85
2023/04/24 11:16:36;;;;;;;2.40;0.70;;;18.10;97.90;;;;;;5042129;28;20301;-85
2023/04/24 11:19:08;;;;;;;1.07;0.97;;;18.10;97.30;;;;;;5053387;28;20220;-85
2023/04/24 11:22:14;;;;;;;0.87;0.77;;;17.90;97.20;;;;;;5051662;28;20322;-85
2023/04/24 11:24:49;;;;;;;0.90;0.70;;;17.80;97.10;;;;;;5040825;28;20214;-85
2023/04/24 11:27:19;;;;;;;0.90;0.80;;;17.60;97.50;;;;;;5055878;28;20384;-85
2023/04/24 11:29:55;;;;;;;0.73;0.70;;;17.30;99.10;;;;;;5047015;28;20238;-83
2023/04/24 11:32:38;;;;;;;2.03;1.03;;;16.70;99.90;;;;;;5045013;28;20263;-82
2023/04/24 11:35:08;;;;;;;2.77;1.00;;;15.80;99.90;;;;;;5050312;28;20346;-83
2023/04/24 11:37:37;;;;;;;1.20;0.87;;;15.30;99.90;;;;;;5048640;28;20273;-83
2023/04/24 11:40:05;;;;;;;1.37;0.80;;;14.80;99.90;;;;;;5050187;28;20201;-80
2023/04/24 11:42:41;;;;;;;2.60;1.00;;;14.40;99.90;;;;;;5051205;28;20217;-81
2023/04/24 11:45:15;;;;;;;2.70;1.23;;;14.10;99.90;;;;;;5050696;28;20223;-82
2023/04/24 11:47:41;;;;;;;0.80;0.80;;;14.00;99.90;;;;;;5043955;28;20230;-84
2023/04/24 11:50:09;;;;;;;2.07;1.33;;;14.20;99.90;;;;;;5040230;28;20282;-83
2023/04/24 11:52:40;;;;;;;0.90;0.90;;;14.70;99.90;;;;;;5048372;28;20272;-86
2023/04/24 11:55:23;;;;;;;3.70;1.17;;;15.40;99.90;;;;;;5049024;28;20212;-85
2023/04/24 11:57:50;;;;;;;1.70;1.47;;;16.00;99.90;;;;;;5055622;28;20217;-83
2023/04/24 12:00:30;;;;;;;1.77;1.00;;;16.90;99.90;;;;;;5051386;28;20304;-83
2023/04/24 12:03:12;;;;;;;3.80;1.23;;;18.10;99.90;;;;;;5043721;28;20202;-82
2023/04/24 12:05:39;;;;;;;2.57;1.20;;;19.20;99.90;;;;;;5038973;28;20237;-83
2023/04/24 12:08:04;;;;;;;1.43;1.20;;;19.80;99.90;;;;;;5037081;28;20217;-82
2023/04/24 12:10:31;;;;;;;1.03;0.93;;;20.10;99.90;;;;;;5045004;28;20240;-86
2023/04/24 12:12:58;;;;;;;0.80;0.80;;;19.80;99.90;;;;;;5036916;28;20215;-83
2023/04/24 12:15:25;;;;;;;2.63;0.90;;;19.50;99.90;;;;;;5040977;28;20404;-82
2023/04/24 12:17:52;;;;;;;2.53;0.93;;;19.30;99.90;;;;;;5043397;28;20219;-84
2023/04/24 12:20:23;;;;;;;1.23;1.00;;;19.10;99.90;;;;;;5057734;28;20239;-83
2023/04/24 12:22:54;;;;;;;1.23;1.13;;;18.80;99.90;;;;;;5060291;28;20212;-84
2023/04/24 12:25:31;;;;;;;1.07;1.00;;;18.50;99.90;;;;;;5060938;28;20208;-83
2023/04/24 12:28:05;;;;;;;1.67;1.13;;;18.30;99.90;;;;;;5062028;28;20223;-78
2023/04/24 12:30:33;;;;;;;0.70;0.70;;;18.10;99.90;;;;;;5042986;28;20270;-78
2023/04/24 12:33:00;;;;;;;1.00;0.97;;;18.90;99.00;;;;;;5046570;28;20305;-67
2023/04/24 12:35:28;;;;;;;0.60;0.60;;;19.60;96.10;;;;;;5041083;28;20324;-69
2023/04/24 12:37:54;;;;;;;1.37;1.27;;;19.60;94.30;;;;;;5037472;28;20677;-68
2023/04/24 12:40:21;;;;;;;1.80;1.10;;;19.10;90.70;;;;;;5038210;28;20198;-68
2023/04/24 12:42:48;;;;;;;0.80;0.73;;;18.60;89.30;;;;;;5040981;28;20217;-68
2023/04/24 12:45:15;;;;;;;1.37;0.90;;;18.30;89.80;;;;;;5039808;28;20202;-77
2023/04/24 12:47:42;;;;;;;2.63;0.60;;;18.10;90.40;;;;;;5046943;28;20534;-81